Time;durP1;ratioP1;P1;durP2;ratioP2;P2;SDS_P1;SDS_P2;PMS_P1;PMS_P2;Temp;Humidity;BMP_temperature;BMP_pressure;BME280_temperature;BME280_humidity;BME280_pressure;Samples;Min_cycle;Max_cycle;Signal;HPM_P1;HPM_P2
2021/08/17 00:03:34;;;;;;;;;;;25.30;48.40;;;;;;8365986;28;19917;-45
2021/08/17 00:07:35;;;;;;;;;;;25.20;48.40;;;;;;8366637;28;19920;-45
2021/08/17 00:11:36;;;;;;;;;;;25.20;48.40;;;;;;8365628;28;19944;-46
2021/08/17 00:15:36;;;;;;;;;;;25.20;48.40;;;;;;8365613;28;20360;-44
2021/08/17 00:19:40;;;;;;;;;;;25.20;48.40;;;;;;8365589;28;20297;-45
2021/08/17 00:23:40;;;;;;;;;;;25.20;48.40;;;;;;8365000;28;19953;-47
2021/08/17 00:27:41;;;;;;;;;;;25.20;48.40;;;;;;8364656;28;19920;-44
2021/08/17 00:31:41;;;;;;;;;;;25.20;48.40;;;;;;8365041;28;19916;-44
2021/08/17 00:35:42;;;;;;;;;;;25.20;48.50;;;;;;8364341;28;19924;-45
2021/08/17 00:39:42;;;;;;;;;;;25.20;48.40;;;;;;8364822;28;19963;-44
2021/08/17 00:43:43;;;;;;;;;;;25.20;48.40;;;;;;8365585;28;19913;-44
2021/08/17 00:47:43;;;;;;;;;;;25.20;48.50;;;;;;8364207;28;20019;-45
2021/08/17 00:51:44;;;;;;;;;;;25.10;48.50;;;;;;8364141;28;19920;-44
2021/08/17 00:55:44;;;;;;;;;;;25.10;48.50;;;;;;8364116;28;19936;-45
2021/08/17 00:59:45;;;;;;;;;;;25.10;48.50;;;;;;8364423;28;19912;-45
2021/08/17 01:03:45;;;;;;;;;;;25.10;48.50;;;;;;8362698;28;19917;-45
2021/08/17 01:07:46;;;;;;;;;;;25.10;48.50;;;;;;8363896;28;19967;-44
2021/08/17 01:11:48;;;;;;;;;;;25.10;48.50;;;;;;8363334;28;20389;-44
2021/08/17 01:15:48;;;;;;;;;;;25.10;48.50;;;;;;8363486;28;19925;-44
2021/08/17 01:19:49;;;;;;;;;;;25.10;48.50;;;;;;8364234;28;19934;-45
2021/08/17 01:23:50;;;;;;;;;;;25.10;48.50;;;;;;8363258;28;19917;-44
2021/08/17 01:27:50;;;;;;;;;;;25.10;49.00;;;;;;8362145;28;20012;-44
2021/08/17 01:31:51;;;;;;;;;;;25.10;48.50;;;;;;8363389;28;19920;-45
2021/08/17 01:35:51;;;;;;;;;;;25.00;48.50;;;;;;8363393;28;20016;-45
2021/08/17 01:39:59;;;;;;;;;;;25.00;48.50;;;;;;8363339;28;19917;-45
2021/08/17 01:44:03;;;;;;;;;;;25.00;48.50;;;;;;8362809;28;19917;-45
2021/08/17 01:48:05;;;;;;;;;;;25.00;48.50;;;;;;8363025;28;19936;-45
2021/08/17 01:52:06;;;;;;;;;;;25.00;48.50;;;;;;8363087;28;19920;-45
2021/08/17 01:56:10;;;;;;;;;;;25.00;48.50;;;;;;8363479;28;19927;-44
2021/08/17 02:00:11;;;;;;;;;;;25.00;48.60;;;;;;8362990;28;19916;-46
2021/08/17 02:04:12;;;;;;;;;;;25.00;48.60;;;;;;8367599;28;20335;-45
2021/08/17 02:08:12;;;;;;;;;;;25.00;48.60;;;;;;8369434;28;19927;-45
2021/08/17 02:12:12;;;;;;;;;;;25.00;48.60;;;;;;8370116;28;20293;-44
2021/08/17 02:16:14;;;;;;;;;;;25.00;48.60;;;;;;8369207;28;20447;-46
2021/08/17 02:20:14;;;;;;;;;;;25.00;48.50;;;;;;8369064;28;19960;-45
2021/08/17 02:24:14;;;;;;;;;;;24.90;48.50;;;;;;8369460;28;19917;-46
2021/08/17 02:28:15;;;;;;;;;;;25.00;48.60;;;;;;8369467;28;19994;-45
2021/08/17 02:32:15;;;;;;;;;;;24.90;48.50;;;;;;8368766;28;19994;-45
2021/08/17 02:36:16;;;;;;;;;;;24.90;48.60;;;;;;8368744;28;20242;-45
2021/08/17 02:40:16;;;;;;;;;;;24.90;48.60;;;;;;8368595;28;19986;-44
2021/08/17 02:44:17;;;;;;;;;;;24.90;48.60;;;;;;8368053;28;19924;-44
2021/08/17 02:48:18;;;;;;;;;;;24.90;48.60;;;;;;8369146;28;19981;-44
2021/08/17 02:52:19;;;;;;;;;;;24.90;48.60;;;;;;8368189;28;20274;-44
2021/08/17 02:56:19;;;;;;;;;;;24.90;48.60;;;;;;8367805;28;19974;-44
2021/08/17 03:00:20;;;;;;;;;;;24.90;48.60;;;;;;8368002;28;19917;-44
2021/08/17 03:04:20;;;;;;;;;;;24.90;48.60;;;;;;8368589;28;19913;-44
2021/08/17 03:08:21;;;;;;;;;;;24.90;48.60;;;;;;8367616;28;19921;-44
2021/08/17 03:12:21;;;;;;;;;;;24.80;48.60;;;;;;8367738;28;19917;-45
2021/08/17 03:16:22;;;;;;;;;;;24.80;48.60;;;;;;8367474;28;19927;-46
2021/08/17 03:20:22;;;;;;;;;;;24.80;48.60;;;;;;8366906;28;20007;-45
2021/08/17 03:24:23;;;;;;;;;;;24.80;48.60;;;;;;8368190;28;19924;-45
2021/08/17 03:28:25;;;;;;;;;;;24.80;48.60;;;;;;8367329;28;19963;-44
2021/08/17 03:32:25;;;;;;;;;;;24.80;48.60;;;;;;8366495;28;19924;-44
2021/08/17 03:36:26;;;;;;;;;;;24.80;48.60;;;;;;8366752;28;19921;-45
2021/08/17 03:40:26;;;;;;;;;;;24.80;48.60;;;;;;8367489;28;19917;-44
2021/08/17 03:44:27;;;;;;;;;;;24.80;48.60;;;;;;8366195;28;19917;-45
2021/08/17 03:48:27;;;;;;;;;;;24.80;48.60;;;;;;8366483;28;19925;-44
2021/08/17 03:52:28;;;;;;;;;;;24.80;48.60;;;;;;8366272;28;19924;-46
2021/08/17 03:56:28;;;;;;;;;;;24.80;48.60;;;;;;8366362;28;19924;-44
2021/08/17 04:00:32;;;;;;;;;;;24.80;48.60;;;;;;8366289;28;20400;-45
2021/08/17 04:04:33;;;;;;;;;;;24.70;48.50;;;;;;8365943;28;20592;-45
2021/08/17 04:08:34;;;;;;;;;;;24.70;48.50;;;;;;8365922;28;20401;-45
2021/08/17 04:12:35;;;;;;;;;;;24.70;48.50;;;;;;8365937;28;19920;-45
2021/08/17 04:16:35;;;;;;;;;;;24.70;48.50;;;;;;8366228;28;20007;-45
2021/08/17 04:20:36;;;;;;;;;;;24.70;48.60;;;;;;8364926;28;19917;-44
2021/08/17 04:24:36;;;;;;;;;;;24.70;48.50;;;;;;8364639;28;19917;-45
2021/08/17 04:28:37;;;;;;;;;;;24.70;48.50;;;;;;8365322;28;20282;-44
2021/08/17 04:32:37;;;;;;;;;;;24.60;48.60;;;;;;8365347;28;19928;-44
2021/08/17 04:36:38;;;;;;;;;;;24.60;48.50;;;;;;8364718;28;20404;-44
2021/08/17 04:40:38;;;;;;;;;;;24.60;48.60;;;;;;8364804;28;19913;-44
2021/08/17 04:44:38;;;;;;;;;;;24.60;48.50;;;;;;8364207;28;19920;-44
2021/08/17 04:48:39;;;;;;;;;;;24.60;48.50;;;;;;8365273;28;19996;-45
2021/08/17 04:52:40;;;;;;;;;;;24.60;48.60;;;;;;8364791;28;19924;-44
2021/08/17 04:56:40;;;;;;;;;;;24.60;48.50;;;;;;8363767;28;20016;-45
2021/08/17 05:00:44;;;;;;;;;;;24.60;48.40;;;;;;8364419;28;20007;-44
2021/08/17 05:04:44;;;;;;;;;;;24.60;48.50;;;;;;8364073;28;19921;-44
2021/08/17 05:08:45;;;;;;;;;;;24.60;48.50;;;;;;8364176;28;19928;-44
2021/08/17 05:12:46;;;;;;;;;;;24.60;48.50;;;;;;8363779;28;19917;-44
2021/08/17 05:16:49;;;;;;;;;;;24.60;48.50;;;;;;8363794;28;20377;-44
2021/08/17 05:20:50;;;;;;;;;;;24.50;48.40;;;;;;8363133;28;20004;-44
2021/08/17 05:24:51;;;;;;;;;;;24.50;48.40;;;;;;8364563;28;19936;-44
2021/08/17 05:28:51;;;;;;;;;;;24.50;48.50;;;;;;8363517;28;19923;-44
2021/08/17 05:32:52;;;;;;;;;;;24.50;48.50;;;;;;8362769;28;19924;-44
2021/08/17 05:36:52;;;;;;;;;;;24.50;48.50;;;;;;8362268;28;19921;-44
2021/08/17 05:40:53;;;;;;;;;;;24.50;48.50;;;;;;8363273;28;20341;-45
2021/08/17 05:44:53;;;;;;;;;;;24.50;48.50;;;;;;8363382;28;19917;-44
2021/08/17 05:48:53;;;;;;;;;;;24.50;48.50;;;;;;8363067;28;19917;-46
2021/08/17 05:52:54;;;;;;;;;;;24.50;48.50;;;;;;8362990;28;20388;-45
2021/08/17 05:56:57;;;;;;;;;;;24.50;48.50;;;;;;8362531;28;19932;-44
2021/08/17 06:00:58;;;;;;;;;;;24.50;48.50;;;;;;8363796;28;19992;-47
2021/08/17 06:04:58;;;;;;;;;;;24.50;48.50;;;;;;8362319;28;19917;-45
2021/08/17 06:08:59;;;;;;;;;;;24.50;48.50;;;;;;8362847;28;20007;-44
2021/08/17 06:12:59;;;;;;;;;;;24.50;48.50;;;;;;8362655;28;19913;-45
2021/08/17 06:17:00;;;;;;;;;;;24.50;48.50;;;;;;8362721;28;20347;-46
2021/08/17 06:21:00;;;;;;;;;;;24.50;48.50;;;;;;8362461;28;19916;-44
2021/08/17 06:25:01;;;;;;;;;;;24.50;48.50;;;;;;8362342;28;20377;-45
2021/08/17 06:29:01;;;;;;;;;;;24.50;48.50;;;;;;8361984;28;20332;-44
2021/08/17 06:33:02;;;;;;;;;;;24.50;48.50;;;;;;8362396;28;22421;-44
2021/08/17 06:37:02;;;;;;;;;;;24.50;48.40;;;;;;8363056;28;20012;-45
2021/08/17 06:41:03;;;;;;;;;;;24.50;48.50;;;;;;8361607;28;19923;-45
2021/08/17 06:45:04;;;;;;;;;;;24.50;48.40;;;;;;8362120;28;19963;-45
2021/08/17 06:49:04;;;;;;;;;;;24.50;48.40;;;;;;8364696;28;20297;-45
2021/08/17 06:53:05;;;;;;;;;;;24.50;48.40;;;;;;8368641;28;19917;-45
2021/08/17 06:57:05;;;;;;;;;;;24.50;48.90;;;;;;8368229;28;20293;-44
2021/08/17 07:01:06;;;;;;;;;;;24.50;48.40;;;;;;8367833;28;20012;-45
2021/08/17 07:05:07;;;;;;;;;;;24.50;48.30;;;;;;8367309;28;19955;-45
2021/08/17 07:09:08;;;;;;;;;;;24.50;48.30;;;;;;8368281;28;20006;-45
2021/08/17 07:13:08;;;;;;;;;;;24.50;48.20;;;;;;8368500;28;19917;-44
2021/08/17 07:17:08;;;;;;;;;;;24.50;48.20;;;;;;8366920;28;19921;-45
2021/08/17 07:21:09;;;;;;;;;;;24.50;48.10;;;;;;8367446;28;19970;-45
2021/08/17 07:25:10;;;;;;;;;;;24.50;48.10;;;;;;8367160;28;20398;-45
2021/08/17 07:29:10;;;;;;;;;;;24.50;48.10;;;;;;8367392;28;19924;-45
2021/08/17 07:33:11;;;;;;;;;;;24.50;48.10;;;;;;8367325;28;19984;-45
2021/08/17 07:37:11;;;;;;;;;;;24.50;48.10;;;;;;8367130;28;19966;-44
2021/08/17 07:41:11;;;;;;;;;;;24.50;48.10;;;;;;8366234;28;20385;-46
2021/08/17 07:45:13;;;;;;;;;;;24.50;48.00;;;;;;8367417;28;19991;-45
2021/08/17 07:49:13;;;;;;;;;;;24.60;48.10;;;;;;8366660;28;19924;-46
2021/08/17 07:53:14;;;;;;;;;;;24.50;48.00;;;;;;8366060;28;22201;-45
2021/08/17 07:57:15;;;;;;;;;;;24.50;47.90;;;;;;8366131;28;19932;-45
2021/08/17 08:01:15;;;;;;;;;;;24.50;47.90;;;;;;8365447;28;20290;-45
2021/08/17 08:05:16;;;;;;;;;;;24.60;48.00;;;;;;8366661;28;19923;-45
2021/08/17 08:09:16;;;;;;;;;;;24.50;48.00;;;;;;8365764;28;19962;-46
2021/08/17 08:13:17;;;;;;;;;;;24.50;48.00;;;;;;8365943;28;19916;-44
2021/08/17 08:17:17;;;;;;;;;;;24.60;48.00;;;;;;8365145;28;19925;-45
2021/08/17 08:21:18;;;;;;;;;;;24.50;47.90;;;;;;8366604;28;19923;-45
2021/08/17 08:25:18;;;;;;;;;;;24.60;48.00;;;;;;8365304;28;19924;-45
2021/08/17 08:29:19;;;;;;;;;;;24.60;48.00;;;;;;8364965;28;19928;-44
2021/08/17 08:33:19;;;;;;;;;;;24.50;48.00;;;;;;8365271;28;19913;-44
2021/08/17 08:37:20;;;;;;;;;;;24.60;48.00;;;;;;8365731;28;19970;-45
2021/08/17 08:41:21;;;;;;;;;;;24.60;48.00;;;;;;8364451;28;19917;-44
2021/08/17 08:45:21;;;;;;;;;;;24.60;48.00;;;;;;8364696;28;19963;-45
2021/08/17 08:49:22;;;;;;;;;;;24.60;48.00;;;;;;8364852;28;19959;-44
2021/08/17 08:53:22;;;;;;;;;;;24.50;48.00;;;;;;8364150;28;20378;-45
2021/08/17 08:57:23;;;;;;;;;;;24.50;48.00;;;;;;8364945;28;20420;-44
2021/08/17 09:01:24;;;;;;;;;;;24.50;48.00;;;;;;8363484;28;20004;-45
2021/08/17 09:05:24;;;;;;;;;;;24.60;48.10;;;;;;8363800;28;19917;-44
2021/08/17 09:09:25;;;;;;;;;;;24.60;48.10;;;;;;8364079;28;19978;-45
2021/08/17 09:13:25;;;;;;;;;;;24.60;48.00;;;;;;8364830;28;19943;-44
2021/08/17 09:17:25;;;;;;;;;;;24.60;48.00;;;;;;8363381;28;19925;-44
2021/08/17 09:21:39;;;;;;;;;;;24.60;48.00;;;;;;8364103;28;19920;-44
2021/08/17 09:25:39;;;;;;;;;;;24.60;48.00;;;;;;8363572;28;19917;-46
2021/08/17 09:29:41;;;;;;;;;;;24.60;48.00;;;;;;8363115;28;19936;-45
2021/08/17 09:33:42;;;;;;;;;;;24.70;48.00;;;;;;8364149;28;19913;-45
2021/08/17 09:37:42;;;;;;;;;;;24.70;48.00;;;;;;8363361;28;19931;-45
2021/08/17 09:41:43;;;;;;;;;;;24.60;47.90;;;;;;8363198;28;19917;-44
2021/08/17 09:45:44;;;;;;;;;;;24.70;47.90;;;;;;8363121;28;19921;-45
2021/08/17 09:49:44;;;;;;;;;;;24.70;47.90;;;;;;8363963;28;19924;-45
2021/08/17 09:53:45;;;;;;;;;;;24.70;47.90;;;;;;8362621;28;19921;-46
2021/08/17 09:57:46;;;;;;;;;;;24.80;47.80;;;;;;8362968;28;19947;-45
2021/08/17 10:01:46;;;;;;;;;;;24.80;47.80;;;;;;8362984;28;19932;-45
2021/08/17 10:05:47;;;;;;;;;;;24.80;47.70;;;;;;8363139;28;19995;-46
2021/08/17 10:09:49;;;;;;;;;;;24.80;47.70;;;;;;8362906;28;19924;-45
2021/08/17 10:13:50;;;;;;;;;;;24.80;47.70;;;;;;8362889;28;19920;-44
2021/08/17 10:17:51;;;;;;;;;;;24.80;47.70;;;;;;8362235;28;19924;-44
2021/08/17 10:21:52;;;;;;;;;;;24.80;47.80;;;;;;8362805;28;20016;-44
2021/08/17 10:25:54;;;;;;;;;;;24.80;47.70;;;;;;8369068;28;19959;-45
2021/08/17 10:29:57;;;;;;;;;;;24.90;47.70;;;;;;8368406;28;19923;-44
2021/08/17 10:34:04;;;;;;;;;;;24.90;47.80;;;;;;8369116;28;19964;-44
2021/08/17 10:38:07;;;;;;;;;;;24.90;47.80;;;;;;8368252;28;19925;-47
2021/08/17 10:42:34;;;;;;;;;;;24.90;47.70;;;;;;8369459;28;20325;-44
2021/08/17 10:46:42;;;;;;;;;;;24.90;47.70;;;;;;8367892;28;19970;-45
2021/08/17 10:50:42;;;;;;;;;;;25.00;47.80;;;;;;8367935;28;19924;-45
2021/08/17 10:54:43;;;;;;;;;;;25.00;47.70;;;;;;8368302;28;19956;-44
2021/08/17 10:58:45;;;;;;;;;;;25.00;47.60;;;;;;8368041;28;19976;-45
2021/08/17 11:02:55;;;;;;;;;;;25.00;47.60;;;;;;8368242;28;19913;-45
2021/08/17 11:06:56;;;;;;;;;;;25.10;47.60;;;;;;8367926;28;19952;-45
2021/08/17 11:11:23;;;;;;;;;;;25.00;47.60;;;;;;8366686;28;19925;-44
2021/08/17 11:15:24;;;;;;;;;;;25.00;47.50;;;;;;8349058;28;19917;-45
2021/08/17 11:19:29;;;;;;;;;;;25.10;47.50;;;;;;8367285;28;20419;-45
2021/08/17 11:23:29;;;;;;;;;;;25.10;47.50;;;;;;8368051;28;20381;-44
2021/08/17 11:27:38;;;;;;;;;;;25.10;47.50;;;;;;8367123;28;19932;-44
2021/08/17 11:31:46;;;;;;;;;;;25.10;47.50;;;;;;8368170;28;20007;-46
2021/08/17 11:35:46;;;;;;;;;;;25.10;47.30;;;;;;8365023;28;19982;-47
2021/08/17 11:39:48;;;;;;;;;;;25.10;47.40;;;;;;8366858;28;19912;-45
2021/08/17 11:44:07;;;;;;;;;;;25.20;47.50;;;;;;8353767;28;19917;-44
2021/08/17 11:48:08;;;;;;;;;;;25.20;47.40;;;;;;8315462;28;19924;-45
2021/08/17 11:52:09;;;;;;;;;;;25.20;47.30;;;;;;8352068;28;20374;-45
2021/08/17 11:56:17;;;;;;;;;;;25.20;47.40;;;;;;8341192;28;19984;-46
2021/08/17 12:00:21;;;;;;;;;;;25.20;47.40;;;;;;8366893;28;19913;-46
2021/08/17 12:04:22;;;;;;;;;;;25.20;47.40;;;;;;8366565;28;19917;-46
2021/08/17 12:08:22;;;;;;;;;;;25.20;47.30;;;;;;8365849;28;20366;-44
2021/08/17 12:12:42;;;;;;;;;;;25.20;47.30;;;;;;8365774;28;19917;-47
2021/08/17 12:16:50;;;;;;;;;;;25.20;47.30;;;;;;8365594;28;19921;-44
2021/08/17 12:21:02;;;;;;;;;;;25.20;47.30;;;;;;8365859;28;20055;-45
2021/08/17 12:25:03;;;;;;;;;;;25.20;47.20;;;;;;8365247;28;19917;-45
2021/08/17 12:29:08;;;;;;;;;;;25.20;47.10;;;;;;8365001;28;20285;-45
2021/08/17 12:33:09;;;;;;;;;;;25.20;47.10;;;;;;8365419;28;20366;-44
2021/08/17 12:37:23;;;;;;;;;;;25.20;47.20;;;;;;8365025;28;19921;-47
2021/08/17 12:41:27;;;;;;;;;;;25.20;47.10;;;;;;8365219;28;19921;-44
2021/08/17 12:45:31;;;;;;;;;;;25.30;47.10;;;;;;8364286;28;20038;-44
2021/08/17 12:49:44;;;;;;;;;;;25.30;47.20;;;;;;8364747;28;19920;-44
2021/08/17 12:53:44;;;;;;;;;;;25.30;47.20;;;;;;8363979;28;20392;-45
2021/08/17 12:57:46;;;;;;;;;;;25.30;47.20;;;;;;8364720;28;19925;-44
2021/08/17 13:01:47;;;;;;;;;;;25.30;47.20;;;;;;8365137;28;20054;-45
2021/08/17 13:05:47;;;;;;;;;;;25.30;47.00;;;;;;8363728;28;20003;-44
2021/08/17 13:09:48;;;;;;;;;;;25.30;47.10;;;;;;8364291;28;20460;-44
2021/08/17 13:13:49;;;;;;;;;;;25.30;47.10;;;;;;8364023;28;19927;-44
2021/08/17 13:17:49;;;;;;;;;;;25.30;46.90;;;;;;8363989;28;19924;-45
2021/08/17 13:21:50;;;;;;;;;;;25.30;46.90;;;;;;8363674;28;19947;-44
2021/08/17 13:25:50;;;;;;;;;;;25.30;46.90;;;;;;8363761;28;19971;-45
2021/08/17 13:29:50;;;;;;;;;;;25.30;46.90;;;;;;8363074;28;19924;-45
2021/08/17 13:33:51;;;;;;;;;;;25.30;46.90;;;;;;8364079;28;19924;-45
2021/08/17 13:37:52;;;;;;;;;;;25.40;46.90;;;;;;8363202;28;20271;-44
2021/08/17 13:41:52;;;;;;;;;;;25.40;46.90;;;;;;8362776;28;19979;-45
2021/08/17 13:45:58;;;;;;;;;;;25.30;47.30;;;;;;8363147;28;20378;-45
2021/08/17 13:49:59;;;;;;;;;;;25.40;46.80;;;;;;8365491;28;19924;-45
2021/08/17 13:54:00;;;;;;;;;;;25.40;46.80;;;;;;8364306;28;20362;-44
2021/08/17 13:58:00;;;;;;;;;;;25.40;46.90;;;;;;8363939;28;19932;-44
2021/08/17 14:02:01;;;;;;;;;;;25.40;46.80;;;;;;8369406;28;19924;-45
2021/08/17 14:06:01;;;;;;;;;;;25.40;46.80;;;;;;8369820;28;19921;-45
2021/08/17 14:10:03;;;;;;;;;;;25.40;46.80;;;;;;8370781;28;19982;-45
2021/08/17 14:14:07;;;;;;;;;;;25.40;47.30;;;;;;8369093;28;19924;-44
2021/08/17 14:18:08;;;;;;;;;;;25.40;46.70;;;;;;8369193;28;19972;-45
2021/08/17 14:22:08;;;;;;;;;;;25.40;46.70;;;;;;8369257;28;19916;-45
2021/08/17 14:26:10;;;;;;;;;;;25.40;46.70;;;;;;8368680;28;20280;-45
2021/08/17 14:30:11;;;;;;;;;;;25.40;46.70;;;;;;8370401;28;19917;-43
2021/08/17 14:34:11;;;;;;;;;;;25.40;46.70;;;;;;8368786;28;19943;-45
2021/08/17 14:38:12;;;;;;;;;;;25.40;46.70;;;;;;8368342;28;19956;-45
2021/08/17 14:42:12;;;;;;;;;;;25.40;46.60;;;;;;8368937;28;19913;-45
2021/08/17 14:46:13;;;;;;;;;;;25.40;46.50;;;;;;8369238;28;19923;-45
2021/08/17 14:50:14;;;;;;;;;;;25.40;46.50;;;;;;8368099;28;20336;-45
2021/08/17 14:54:14;;;;;;;;;;;25.40;46.50;;;;;;8368749;28;19962;-45
2021/08/17 14:58:15;;;;;;;;;;;25.40;46.50;;;;;;8368273;28;20341;-45
2021/08/17 15:02:15;;;;;;;;;;;25.40;46.50;;;;;;8368504;28;19931;-46
2021/08/17 15:06:16;;;;;;;;;;;25.40;46.50;;;;;;8367896;28;19943;-45
2021/08/17 15:10:17;;;;;;;;;;;25.40;46.50;;;;;;8367588;28;19967;-47
2021/08/17 15:14:17;;;;;;;;;;;25.40;46.50;;;;;;8367290;28;19916;-44
2021/08/17 15:18:18;;;;;;;;;;;25.40;46.50;;;;;;8367758;28;19928;-45
2021/08/17 15:22:18;;;;;;;;;;;25.40;46.50;;;;;;8368316;28;19971;-43
2021/08/17 15:26:19;;;;;;;;;;;25.40;46.40;;;;;;8366850;28;19927;-43
2021/08/17 15:30:20;;;;;;;;;;;25.40;46.40;;;;;;8367222;28;19965;-44
2021/08/17 15:34:21;;;;;;;;;;;25.40;46.40;;;;;;8367246;28;19913;-44
2021/08/17 15:38:24;;;;;;;;;;;25.40;46.40;;;;;;8367073;28;19971;-45
2021/08/17 15:42:25;;;;;;;;;;;25.40;46.40;;;;;;8366813;28;19943;-45
2021/08/17 15:46:25;;;;;;;;;;;25.40;46.40;;;;;;8366774;28;20283;-44
2021/08/17 15:50:27;;;;;;;;;;;25.40;46.40;;;;;;8366011;28;20258;-44
2021/08/17 15:54:27;;;;;;;;;;;25.40;46.40;;;;;;8366468;28;19919;-45
2021/08/17 15:58:28;;;;;;;;;;;25.40;46.40;;;;;;8366784;28;20328;-44
2021/08/17 16:02:28;;;;;;;;;;;25.40;46.40;;;;;;8365565;28;20286;-44
2021/08/17 16:06:29;;;;;;;;;;;25.40;46.40;;;;;;8365932;28;20029;-44
2021/08/17 16:10:30;;;;;;;;;;;25.40;46.40;;;;;;8365659;28;19947;-45
2021/08/17 16:14:31;;;;;;;;;;;25.40;46.40;;;;;;8366073;28;19919;-45
2021/08/17 16:18:31;;;;;;;;;;;25.40;46.40;;;;;;8365876;28;20271;-46
2021/08/17 16:22:32;;;;;;;;;;;25.30;46.30;;;;;;8364913;28;19932;-45
2021/08/17 16:26:33;;;;;;;;;;;25.30;46.30;;;;;;8364946;28;19932;-44
2021/08/17 16:30:33;;;;;;;;;;;25.30;46.30;;;;;;8366346;28;19921;-45
2021/08/17 16:34:34;;;;;;;;;;;25.30;46.20;;;;;;8364985;28;20374;-44
2021/08/17 16:38:35;;;;;;;;;;;25.30;46.30;;;;;;8364668;28;19925;-44
2021/08/17 16:42:35;;;;;;;;;;;25.30;46.30;;;;;;8365184;28;19917;-44
2021/08/17 16:46:36;;;;;;;;;;;25.30;46.30;;;;;;8364751;28;20382;-44
2021/08/17 16:50:37;;;;;;;;;;;25.30;46.30;;;;;;8364895;28;19913;-44
2021/08/17 16:54:38;;;;;;;;;;;25.30;46.30;;;;;;8364391;28;20015;-44
2021/08/17 16:58:39;;;;;;;;;;;25.30;46.30;;;;;;8364457;28;19930;-44
2021/08/17 17:02:40;;;;;;;;;;;25.30;46.30;;;;;;8363728;28;19920;-46
2021/08/17 17:06:40;;;;;;;;;;;25.30;46.30;;;;;;8365041;28;19920;-45
2021/08/17 17:10:41;;;;;;;;;;;25.30;46.30;;;;;;8364017;28;19924;-44
2021/08/17 17:14:41;;;;;;;;;;;25.30;46.30;;;;;;8363557;28;19917;-44
2021/08/17 17:18:42;;;;;;;;;;;25.30;46.20;;;;;;8363638;28;19956;-44
2021/08/17 17:22:42;;;;;;;;;;;25.30;46.20;;;;;;8364417;28;19916;-44
2021/08/17 17:26:44;;;;;;;;;;;25.20;46.20;;;;;;8363100;28;19917;-45
2021/08/17 17:30:46;;;;;;;;;;;25.20;46.10;;;;;;8363437;28;20023;-45
2021/08/17 17:34:46;;;;;;;;;;;25.10;44.10;;;;;;8363920;28;19923;-45
2021/08/17 17:38:47;;;;;;;;;;;25.00;42.80;;;;;;8362592;28;19929;-45
2021/08/17 17:42:47;;;;;;;;;;;24.80;40.80;;;;;;8363984;28;19919;-46
2021/08/17 17:46:48;;;;;;;;;;;24.80;39.80;;;;;;8363325;28;20004;-46
2021/08/17 17:50:48;;;;;;;;;;;24.60;39.50;;;;;;8362629;28;19921;-47
2021/08/17 17:54:49;;;;;;;;;;;24.60;38.80;;;;;;8363287;28;19920;-45
2021/08/17 17:58:49;;;;;;;;;;;24.50;38.70;;;;;;8363769;28;19932;-44
2021/08/17 18:02:50;;;;;;;;;;;24.40;38.70;;;;;;8362571;28;19970;-46
2021/08/17 18:06:51;;;;;;;;;;;24.30;38.40;;;;;;8363114;28;19975;-44
2021/08/17 18:10:51;;;;;;;;;;;24.30;38.10;;;;;;8362750;28;19923;-45
2021/08/17 18:14:52;;;;;;;;;;;24.20;38.30;;;;;;8362203;28;20011;-45
2021/08/17 18:18:52;;;;;;;;;;;24.20;38.70;;;;;;8362665;28;20378;-44
2021/08/17 18:22:53;;;;;;;;;;;24.10;38.60;;;;;;8350345;28;19917;-45
2021/08/17 18:26:54;;;;;;;;;;;24.10;39.70;;;;;;8346089;28;19917;-44
2021/08/17 18:30:54;;;;;;;;;;;24.00;39.60;;;;;;8346105;28;19920;-44
2021/08/17 18:34:55;;;;;;;;;;;24.00;39.60;;;;;;8346355;28;19920;-44
2021/08/17 18:38:55;;;;;;;;;;;24.10;39.70;;;;;;8350346;28;19925;-45
2021/08/17 18:42:56;;;;;;;;;;;24.00;39.40;;;;;;8362178;28;19921;-44
2021/08/17 18:46:56;;;;;;;;;;;24.00;39.70;;;;;;8363167;28;20418;-45
2021/08/17 18:50:57;;;;;;;;;;;24.10;41.50;;;;;;8366792;28;19912;-44
2021/08/17 18:54:58;;;;;;;;;;;24.10;42.20;;;;;;8366061;28;19916;-44
2021/08/17 18:58:58;;;;;;;;;;;24.30;42.30;;;;;;8365665;28;19925;-44
2021/08/17 19:02:58;;;;;;;;;;;24.30;42.20;;;;;;8368484;28;19920;-45
2021/08/17 19:06:59;;;;;;;;;;;24.40;42.20;;;;;;8367989;28;19996;-46
2021/08/17 19:10:59;;;;;;;;;;;24.40;42.10;;;;;;8368264;28;19924;-45
2021/08/17 19:15:01;;;;;;;;;;;24.40;42.00;;;;;;8366464;28;19917;-46
2021/08/17 19:19:02;;;;;;;;;;;24.50;42.20;;;;;;8367777;28;19920;-44
2021/08/17 19:23:04;;;;;;;;;;;24.50;42.20;;;;;;8367267;28;19917;-46
2021/08/17 19:27:05;;;;;;;;;;;24.50;42.30;;;;;;8368039;28;19920;-45
2021/08/17 19:31:06;;;;;;;;;;;24.50;42.40;;;;;;8367234;28;19917;-46
2021/08/17 19:35:07;;;;;;;;;;;24.50;42.50;;;;;;8366766;28;19959;-45
2021/08/17 19:39:08;;;;;;;;;;;24.50;42.60;;;;;;8366951;28;19994;-46
2021/08/17 19:43:09;;;;;;;;;;;24.50;42.70;;;;;;8367171;28;19921;-45
2021/08/17 19:47:09;;;;;;;;;;;24.50;42.70;;;;;;8365483;28;20007;-44
2021/08/17 19:51:10;;;;;;;;;;;24.50;42.90;;;;;;8366508;28;19917;-44
2021/08/17 19:55:10;;;;;;;;;;;24.50;42.90;;;;;;8365910;28;20004;-44
2021/08/17 19:59:11;;;;;;;;;;;24.50;43.00;;;;;;8365561;28;19986;-44
2021/08/17 20:03:11;;;;;;;;;;;24.50;43.00;;;;;;8367093;28;19999;-44
2021/08/17 20:07:12;;;;;;;;;;;24.50;43.10;;;;;;8366263;28;19921;-44
2021/08/17 20:11:12;;;;;;;;;;;24.50;43.20;;;;;;8365797;28;20305;-45
2021/08/17 20:15:13;;;;;;;;;;;24.50;43.20;;;;;;8365984;28;19921;-45
2021/08/17 20:19:13;;;;;;;;;;;24.50;43.30;;;;;;8366497;28;19921;-45
2021/08/17 20:23:15;;;;;;;;;;;24.50;43.30;;;;;;8365292;28;19917;-46
2021/08/17 20:27:17;;;;;;;;;;;24.50;43.40;;;;;;8364871;28;21281;-45
2021/08/17 20:31:17;;;;;;;;;;;24.50;43.40;;;;;;8364200;28;20361;-44
2021/08/17 20:35:18;;;;;;;;;;;24.50;43.40;;;;;;8365089;28;19920;-44
2021/08/17 20:39:19;;;;;;;;;;;24.50;43.50;;;;;;8336611;28;19929;-44
2021/08/17 20:43:19;;;;;;;;;;;24.50;43.60;;;;;;8328208;28;20094;-45
2021/08/17 20:47:20;;;;;;;;;;;24.40;43.60;;;;;;8342360;28;19921;-44
2021/08/17 20:51:21;;;;;;;;;;;24.50;43.70;;;;;;8343479;28;19913;-44
2021/08/17 20:55:21;;;;;;;;;;;24.50;43.80;;;;;;8365188;28;19917;-44
2021/08/17 20:59:22;;;;;;;;;;;24.40;43.80;;;;;;8363749;28;19988;-47
2021/08/17 21:03:23;;;;;;;;;;;24.50;43.90;;;;;;8364228;28;20298;-46
2021/08/17 21:07:23;;;;;;;;;;;24.40;43.90;;;;;;8364390;28;19960;-45
2021/08/17 21:11:23;;;;;;;;;;;24.40;43.90;;;;;;8364267;28;19966;-45
2021/08/17 21:15:24;;;;;;;;;;;24.40;44.00;;;;;;8363891;28;19923;-45
2021/08/17 21:19:27;;;;;;;;;;;24.40;44.00;;;;;;8363872;28;19932;-44
2021/08/17 21:23:27;;;;;;;;;;;24.40;44.00;;;;;;8363521;28;20441;-45
2021/08/17 21:27:28;;;;;;;;;;;24.40;44.00;;;;;;8363897;28;19913;-44
2021/08/17 21:31:30;;;;;;;;;;;24.40;44.10;;;;;;8364436;28;20296;-44
2021/08/17 21:35:31;;;;;;;;;;;24.40;44.10;;;;;;8363001;28;19917;-45
2021/08/17 21:39:31;;;;;;;;;;;24.40;44.10;;;;;;8363393;28;19932;-45
2021/08/17 21:43:33;;;;;;;;;;;24.40;44.20;;;;;;8363347;28;19913;-46
2021/08/17 21:47:34;;;;;;;;;;;24.40;44.20;;;;;;8363620;28;20305;-46
2021/08/17 21:51:34;;;;;;;;;;;24.40;44.20;;;;;;8363543;28;20366;-44
2021/08/17 21:55:35;;;;;;;;;;;24.40;44.20;;;;;;8363395;28;19951;-48
2021/08/17 21:59:35;;;;;;;;;;;24.40;44.20;;;;;;8362617;28;19931;-46
2021/08/17 22:03:36;;;;;;;;;;;24.40;44.30;;;;;;8363094;28;19913;-44
2021/08/17 22:07:36;;;;;;;;;;;24.30;44.20;;;;;;8363302;28;19921;-46
2021/08/17 22:11:38;;;;;;;;;;;24.40;44.30;;;;;;8362604;28;19916;-45
2021/08/17 22:15:38;;;;;;;;;;;24.40;44.30;;;;;;8362981;28;19917;-46
2021/08/17 22:19:39;;;;;;;;;;;24.40;44.30;;;;;;8364762;28;19936;-45
2021/08/17 22:23:39;;;;;;;;;;;24.40;44.40;;;;;;8369956;28;19962;-47
2021/08/17 22:27:40;;;;;;;;;;;24.30;44.40;;;;;;8369220;28;19917;-45
2021/08/17 22:31:41;;;;;;;;;;;24.40;44.40;;;;;;8369378;28;20033;-45
2021/08/17 22:35:41;;;;;;;;;;;24.30;44.40;;;;;;8368643;28;19916;-46
2021/08/17 22:39:42;;;;;;;;;;;24.30;44.40;;;;;;8369561;28;19920;-44
2021/08/17 22:43:42;;;;;;;;;;;24.30;44.40;;;;;;8369050;28;19917;-45
2021/08/17 22:47:43;;;;;;;;;;;24.30;44.40;;;;;;8368398;28;19916;-44
2021/08/17 22:51:43;;;;;;;;;;;24.30;44.40;;;;;;8368606;28;20299;-45
2021/08/17 22:55:44;;;;;;;;;;;24.30;44.50;;;;;;8368703;28;19912;-45
2021/08/17 22:59:44;;;;;;;;;;;24.30;44.50;;;;;;8368440;28;19963;-44
2021/08/17 23:03:45;;;;;;;;;;;24.30;44.50;;;;;;8368722;28;19920;-45
2021/08/17 23:07:45;;;;;;;;;;;24.30;44.50;;;;;;8368358;28;20350;-45
2021/08/17 23:11:46;;;;;;;;;;;24.30;44.50;;;;;;8367445;28;20096;-45
2021/08/17 23:15:46;;;;;;;;;;;24.30;44.50;;;;;;8368640;28;20323;-44
2021/08/17 23:19:46;;;;;;;;;;;24.30;44.60;;;;;;8367695;28;19971;-45
2021/08/17 23:23:47;;;;;;;;;;;24.30;44.60;;;;;;8367190;28;19924;-45